Time;durP1;ratioP1;P1;durP2;ratioP2;P2;SDS_P1;SDS_P2;PMS_P1;PMS_P2;Temp;Humidity;BMP_temperature;BMP_pressure;BME280_temperature;BME280_humidity;BME280_pressure;Samples;Min_cycle;Max_cycle;Signal;HPM_P1;HPM_P2
2021/07/08 00:00:15;;;;;;;8.85;5.85;;;25.30;70.10;;;;;;5057257;28;20112;-74
2021/07/08 00:02:41;;;;;;;8.13;5.63;;;25.30;70.30;;;;;;5056754;28;20039;-73
2021/07/08 00:05:10;;;;;;;9.25;5.60;;;25.20;70.30;;;;;;5057214;28;20033;-74
2021/07/08 00:07:36;;;;;;;8.52;5.82;;;25.20;70.40;;;;;;5072891;28;20359;-74
2021/07/08 00:10:07;;;;;;;6.90;5.50;;;25.20;70.50;;;;;;5056618;28;20025;-73
2021/07/08 00:12:32;;;;;;;8.07;5.63;;;25.20;70.70;;;;;;5055986;28;20040;-74
2021/07/08 00:14:58;;;;;;;7.20;5.93;;;25.20;70.70;;;;;;5056733;28;20037;-74
2021/07/08 00:17:24;;;;;;;10.13;6.13;;;25.20;70.80;;;;;;5056720;28;20025;-74
2021/07/08 00:19:50;;;;;;;8.98;5.32;;;25.20;70.90;;;;;;5056471;28;20463;-74
2021/07/08 00:22:15;;;;;;;11.43;6.90;;;25.20;71.00;;;;;;5056875;28;20032;-73
2021/07/08 00:24:41;;;;;;;6.70;5.97;;;25.20;71.10;;;;;;5056595;28;20029;-74
2021/07/08 00:27:07;;;;;;;6.82;5.75;;;25.10;71.20;;;;;;5056575;28;20467;-74
2021/07/08 00:29:32;;;;;;;7.78;6.03;;;25.20;71.40;;;;;;5056476;28;20112;-74
2021/07/08 00:31:58;;;;;;;7.55;5.80;;;25.10;71.40;;;;;;5056412;28;20025;-74
2021/07/08 00:34:24;;;;;;;7.03;5.68;;;25.10;71.60;;;;;;5056676;28;20108;-72
2021/07/08 00:36:49;;;;;;;7.40;6.30;;;25.10;71.60;;;;;;5056092;28;20468;-72
2021/07/08 00:39:15;;;;;;;7.70;5.75;;;25.10;71.80;;;;;;5056091;28;20104;-72
2021/07/08 00:41:42;;;;;;;8.50;6.22;;;25.10;71.90;;;;;;5055995;28;20071;-72
2021/07/08 00:44:08;;;;;;;9.60;6.35;;;25.10;72.00;;;;;;5056181;28;20033;-73
2021/07/08 00:46:36;;;;;;;9.23;6.03;;;25.00;72.70;;;;;;5056117;28;20036;-72
2021/07/08 00:49:02;;;;;;;9.10;6.07;;;25.00;72.10;;;;;;5056740;28;20053;-72
2021/07/08 00:51:27;;;;;;;8.60;6.38;;;25.00;72.20;;;;;;5056579;28;20067;-72
2021/07/08 00:53:53;;;;;;;7.38;6.07;;;24.90;72.30;;;;;;5056347;28;20048;-73
2021/07/08 00:56:19;;;;;;;8.05;6.10;;;24.90;72.40;;;;;;5055953;28;20036;-73
2021/07/08 00:59:07;;;;;;;10.73;5.68;;;24.80;72.50;;;;;;5054835;28;20021;-72
2021/07/08 01:01:33;;;;;;;7.57;6.13;;;24.90;72.70;;;;;;5055908;28;20025;-73
2021/07/08 01:04:02;;;;;;;8.07;6.18;;;24.80;72.70;;;;;;5055543;28;20574;-72
2021/07/08 01:06:29;;;;;;;9.93;6.72;;;24.80;72.90;;;;;;5055742;28;20037;-72
2021/07/08 01:08:55;;;;;;;7.45;6.68;;;24.80;72.90;;;;;;5056305;28;20079;-73
2021/07/08 01:11:22;;;;;;;7.85;6.70;;;24.80;72.90;;;;;;5055706;28;20112;-73
2021/07/08 01:13:48;;;;;;;9.45;6.70;;;24.80;73.00;;;;;;5071160;28;20475;-72
2021/07/08 01:16:14;;;;;;;10.68;6.97;;;24.80;73.10;;;;;;5055645;28;20037;-72
2021/07/08 01:18:40;;;;;;;9.18;6.13;;;24.80;73.20;;;;;;5055635;28;20028;-72
2021/07/08 01:21:25;;;;;;;9.48;6.28;;;24.70;73.20;;;;;;5056021;28;20033;-72
2021/07/08 01:23:55;;;;;;;8.02;6.38;;;24.70;73.30;;;;;;5055490;28;20037;-75
2021/07/08 01:26:22;;;;;;;8.48;6.38;;;24.70;73.40;;;;;;5070945;28;20036;-72
2021/07/08 01:28:52;;;;;;;7.25;6.13;;;24.70;73.50;;;;;;5056012;28;20374;-72
2021/07/08 01:31:19;;;;;;;7.72;6.18;;;24.70;73.50;;;;;;5055367;28;20029;-72
2021/07/08 01:33:46;;;;;;;9.25;6.35;;;24.70;73.50;;;;;;5055319;28;20017;-72
2021/07/08 01:36:13;;;;;;;7.82;5.75;;;24.70;73.60;;;;;;5055388;28;20033;-72
2021/07/08 01:38:39;;;;;;;9.30;6.30;;;24.70;73.60;;;;;;5055204;28;20029;-72
2021/07/08 01:41:05;;;;;;;8.50;5.78;;;24.60;73.50;;;;;;5055143;28;20086;-73
2021/07/08 01:43:37;;;;;;;8.70;6.53;;;24.60;73.60;;;;;;5055106;28;20035;-72
2021/07/08 01:46:08;;;;;;;8.75;6.10;;;24.60;73.60;;;;;;5055042;28;20037;-73
2021/07/08 01:48:35;;;;;;;9.27;7.05;;;24.60;73.70;;;;;;5055028;28;20036;-73
2021/07/08 01:51:11;;;;;;;8.20;6.40;;;24.60;73.70;;;;;;5055047;28;20036;-73
2021/07/08 01:53:37;;;;;;;8.95;6.28;;;24.60;73.90;;;;;;5054730;28;20060;-72
2021/07/08 01:56:03;;;;;;;8.15;6.72;;;24.60;73.90;;;;;;5054842;28;20103;-73
2021/07/08 01:58:28;;;;;;;7.97;6.53;;;24.60;74.00;;;;;;5055390;28;20033;-73
2021/07/08 02:00:54;;;;;;;11.85;6.78;;;24.60;74.10;;;;;;5054812;28;20037;-72
2021/07/08 02:03:20;;;;;;;11.05;6.40;;;24.60;74.20;;;;;;5055253;28;20100;-73
2021/07/08 02:05:46;;;;;;;8.40;6.43;;;24.60;74.30;;;;;;5055217;28;20374;-73
2021/07/08 02:08:12;;;;;;;9.00;6.70;;;24.60;74.40;;;;;;5054605;28;20037;-73
2021/07/08 02:10:38;;;;;;;9.90;6.22;;;24.60;74.40;;;;;;5054379;28;20066;-73
2021/07/08 02:13:05;;;;;;;10.18;6.90;;;24.60;74.10;;;;;;5055319;28;20032;-73
2021/07/08 02:15:31;;;;;;;9.63;6.93;;;24.60;73.90;;;;;;5054640;28;20360;-72
2021/07/08 02:17:57;;;;;;;9.52;7.03;;;24.60;73.70;;;;;;5054663;28;20115;-73
2021/07/08 02:20:23;;;;;;;9.38;5.97;;;24.60;73.50;;;;;;5054005;28;20428;-73
2021/07/08 02:22:49;;;;;;;11.25;7.18;;;24.60;73.50;;;;;;5054390;28;20103;-73
2021/07/08 02:25:15;;;;;;;10.90;6.82;;;24.60;73.50;;;;;;5054337;28;20033;-73
2021/07/08 02:27:42;;;;;;;7.90;5.93;;;24.70;73.70;;;;;;5069664;28;20455;-73
2021/07/08 02:30:09;;;;;;;10.25;6.28;;;24.70;73.90;;;;;;5054521;28;20025;-73
2021/07/08 02:32:35;;;;;;;7.43;5.80;;;24.70;73.70;;;;;;5054542;28;20048;-72
2021/07/08 02:35:02;;;;;;;8.75;6.43;;;24.70;73.60;;;;;;5054077;28;20032;-73
2021/07/08 02:37:28;;;;;;;9.80;5.85;;;24.70;73.00;;;;;;5069446;28;20041;-73
2021/07/08 02:39:53;;;;;;;10.82;5.60;;;24.70;72.70;;;;;;5053768;28;20051;-73
2021/07/08 02:42:19;;;;;;;10.20;5.57;;;24.80;72.30;;;;;;5054445;28;20060;-73
2021/07/08 02:44:44;;;;;;;8.43;5.82;;;24.80;72.00;;;;;;5053668;28;20541;-72
2021/07/08 02:47:10;;;;;;;6.18;5.57;;;24.90;71.80;;;;;;5053972;28;20072;-73
2021/07/08 02:49:36;;;;;;;9.57;5.72;;;24.90;71.40;;;;;;5053650;28;20075;-73
2021/07/08 02:52:02;;;;;;;5.50;5.00;;;24.90;71.00;;;;;;5053849;28;20047;-73
2021/07/08 02:54:28;;;;;;;8.15;5.47;;;25.00;70.90;;;;;;5054864;28;20053;-73
2021/07/08 02:56:54;;;;;;;9.50;5.80;;;25.00;70.90;;;;;;5054028;28;20124;-72
2021/07/08 02:59:19;;;;;;;6.57;5.40;;;25.00;70.70;;;;;;5053455;28;20040;-73
2021/07/08 03:01:45;;;;;;;6.13;5.05;;;25.00;70.50;;;;;;5053737;28;20108;-73
2021/07/08 03:04:11;;;;;;;6.00;5.40;;;25.10;70.40;;;;;;5053817;28;20459;-73
2021/07/08 03:06:36;;;;;;;8.00;5.30;;;25.10;70.10;;;;;;5053391;28;20060;-73
2021/07/08 03:09:04;;;;;;;7.55;5.40;;;25.10;70.00;;;;;;5053592;28;20032;-73
2021/07/08 03:11:29;;;;;;;7.50;5.70;;;25.20;69.80;;;;;;5053583;28;20029;-73
2021/07/08 03:13:55;;;;;;;8.40;5.53;;;25.20;69.60;;;;;;5053977;28;20036;-73
2021/07/08 03:16:21;;;;;;;5.72;5.00;;;25.20;69.20;;;;;;5053633;28;20028;-72
2021/07/08 03:18:46;;;;;;;10.35;5.32;;;25.30;69.00;;;;;;5053582;28;20025;-72
2021/07/08 03:21:12;;;;;;;8.55;5.00;;;25.30;68.70;;;;;;5053338;28;20122;-73
2021/07/08 03:23:38;;;;;;;6.57;5.22;;;25.30;69.20;;;;;;5052717;28;20025;-73
2021/07/08 03:26:04;;;;;;;8.95;5.60;;;25.30;68.50;;;;;;5053728;28;20090;-73
2021/07/08 03:28:29;;;;;;;10.10;5.35;;;25.30;68.20;;;;;;5053710;28;20021;-72
2021/07/08 03:30:55;;;;;;;7.97;5.45;;;25.30;68.00;;;;;;5053407;28;20029;-72
2021/07/08 03:33:21;;;;;;;7.07;5.45;;;25.40;67.90;;;;;;5053371;28;20445;-72
2021/07/08 03:35:47;;;;;;;9.65;5.53;;;25.40;67.70;;;;;;5053241;28;20037;-72
2021/07/08 03:38:12;;;;;;;6.60;5.15;;;25.40;67.50;;;;;;5053620;28;20081;-72
2021/07/08 03:40:38;;;;;;;8.20;5.22;;;25.40;67.30;;;;;;5053801;28;20029;-73
2021/07/08 03:43:04;;;;;;;5.82;5.32;;;25.50;67.30;;;;;;5053376;28;20032;-73
2021/07/08 03:45:30;;;;;;;6.40;5.07;;;25.50;67.10;;;;;;5053510;28;20040;-73
2021/07/08 03:47:56;;;;;;;8.18;5.35;;;25.60;67.00;;;;;;5053304;28;20386;-73
2021/07/08 03:50:23;;;;;;;9.50;5.30;;;25.60;66.90;;;;;;5053688;28;20029;-73
2021/07/08 03:52:49;;;;;;;8.73;6.07;;;25.60;66.90;;;;;;5053179;28;20517;-73
2021/07/08 03:55:18;;;;;;;9.25;5.97;;;25.70;67.00;;;;;;5053398;28;20107;-74
2021/07/08 03:57:53;;;;;;;6.85;5.68;;;25.70;66.90;;;;;;5053532;28;20075;-73
2021/07/08 04:00:31;;;;;;;8.13;5.07;;;25.70;66.70;;;;;;5053376;28;20025;-74
2021/07/08 04:02:59;;;;;;;9.10;5.38;;;25.80;66.60;;;;;;5053530;28;20033;-73
2021/07/08 04:05:25;;;;;;;7.10;5.50;;;25.90;66.40;;;;;;5052987;28;20029;-72
2021/07/08 04:07:51;;;;;;;8.10;5.70;;;25.90;66.40;;;;;;5053004;28;20051;-72
2021/07/08 04:10:17;;;;;;;7.50;5.38;;;25.90;66.80;;;;;;5052975;28;20104;-73
2021/07/08 04:12:44;;;;;;;11.05;5.05;;;26.00;65.90;;;;;;5053035;28;20083;-73
2021/07/08 04:15:10;;;;;;;5.80;5.05;;;26.00;65.70;;;;;;5052856;28;20034;-74
2021/07/08 04:17:36;;;;;;;7.07;5.65;;;26.00;65.50;;;;;;5053131;28;20057;-73
2021/07/08 04:20:08;;;;;;;10.90;6.30;;;26.00;65.60;;;;;;5068083;28;20439;-73
2021/07/08 04:22:34;;;;;;;14.20;5.78;;;26.10;65.70;;;;;;5052562;28;20033;-73
2021/07/08 04:24:59;;;;;;;7.80;5.57;;;26.10;65.80;;;;;;5052500;28;20128;-73
2021/07/08 04:27:27;;;;;;;7.13;5.55;;;26.20;65.80;;;;;;5052560;28;20091;-72
2021/07/08 04:29:53;;;;;;;11.15;5.15;;;26.20;65.80;;;;;;5052638;28;20109;-73
2021/07/08 04:32:19;;;;;;;18.15;6.57;;;26.20;65.40;;;;;;5052840;28;20124;-72
2021/07/08 04:34:44;;;;;;;9.43;4.97;;;26.30;65.20;;;;;;5055596;28;20033;-72
2021/07/08 04:37:10;;;;;;;11.32;5.60;;;26.40;65.00;;;;;;5056126;28;20083;-72
2021/07/08 04:39:36;;;;;;;7.32;4.72;;;26.40;64.90;;;;;;5056795;28;20025;-72
2021/07/08 04:42:02;;;;;;;9.68;4.70;;;26.40;64.40;;;;;;5055895;28;20029;-73
2021/07/08 04:44:28;;;;;;;8.20;5.18;;;26.40;63.80;;;;;;5056439;28;20028;-72
2021/07/08 04:46:54;;;;;;;6.43;4.65;;;26.50;63.50;;;;;;5056526;28;20032;-74
2021/07/08 04:49:19;;;;;;;8.75;4.88;;;26.50;63.00;;;;;;5056397;28;20033;-72
2021/07/08 04:51:45;;;;;;;6.55;4.28;;;26.60;62.40;;;;;;5055880;28;20021;-73
2021/07/08 04:54:11;;;;;;;10.98;4.32;;;26.60;62.00;;;;;;5056285;28;20053;-74
2021/07/08 04:56:37;;;;;;;7.63;4.50;;;26.60;61.70;;;;;;5056254;28;20391;-72
2021/07/08 04:59:02;;;;;;;8.40;5.03;;;26.70;61.50;;;;;;5056146;28;20025;-73
2021/07/08 05:01:28;;;;;;;9.15;4.50;;;26.70;61.30;;;;;;5055817;28;20029;-73
2021/07/08 05:03:58;;;;;;;13.57;4.20;;;26.80;61.10;;;;;;5056131;28;20040;-72
2021/07/08 05:06:24;;;;;;;9.02;4.40;;;26.70;60.90;;;;;;5055653;28;20033;-73
2021/07/08 05:08:50;;;;;;;5.63;5.03;;;26.80;60.90;;;;;;5055716;28;20056;-73
2021/07/08 05:11:15;;;;;;;12.25;4.95;;;26.80;60.90;;;;;;5055924;28;20467;-73
2021/07/08 05:13:41;;;;;;;27.02;6.18;;;26.90;60.80;;;;;;5055554;28;20036;-72
2021/07/08 05:16:07;;;;;;;24.98;6.88;;;26.90;60.80;;;;;;5056070;28;20520;-73
2021/07/08 05:18:33;;;;;;;8.68;4.82;;;26.90;60.90;;;;;;5055420;28;20051;-73
2021/07/08 05:21:00;;;;;;;12.93;5.13;;;27.00;60.90;;;;;;5055404;28;20029;-72
2021/07/08 05:23:27;;;;;;;11.70;5.30;;;27.10;60.90;;;;;;5055323;28;20462;-73
2021/07/08 05:25:53;;;;;;;8.95;5.07;;;27.10;60.80;;;;;;5055339;28;20024;-73
2021/07/08 05:28:19;;;;;;;8.63;4.50;;;27.20;60.70;;;;;;5056071;28;20090;-73
2021/07/08 05:30:46;;;;;;;9.07;5.60;;;27.20;60.50;;;;;;5055429;28;20375;-73
2021/07/08 05:33:11;;;;;;;13.23;4.85;;;27.30;60.50;;;;;;5055071;28;20028;-72
2021/07/08 05:35:37;;;;;;;15.10;5.47;;;27.30;60.30;;;;;;5054902;28;20432;-75
2021/07/08 05:38:05;;;;;;;9.07;4.97;;;27.40;60.10;;;;;;5055238;28;20033;-74
2021/07/08 05:40:31;;;;;;;6.95;4.72;;;27.40;60.00;;;;;;5054928;28;20036;-72
2021/07/08 05:42:57;;;;;;;9.20;4.53;;;27.50;59.80;;;;;;5055001;28;20033;-72
2021/07/08 05:45:23;;;;;;;6.32;4.78;;;27.50;59.60;;;;;;5054425;28;20099;-74
2021/07/08 05:47:49;;;;;;;13.57;5.18;;;27.60;59.70;;;;;;5055604;28;20056;-73
2021/07/08 05:50:15;;;;;;;6.20;4.82;;;27.60;59.90;;;;;;5054915;28;20021;-73
2021/07/08 05:52:41;;;;;;;8.07;4.25;;;27.70;60.00;;;;;;5055013;28;20061;-73
2021/07/08 05:55:07;;;;;;;9.85;4.63;;;27.80;59.10;;;;;;5054518;28;20525;-73
2021/07/08 05:57:33;;;;;;;19.15;5.57;;;27.70;58.90;;;;;;5054157;28;20056;-73
2021/07/08 05:59:59;;;;;;;7.63;4.25;;;27.70;58.80;;;;;;5054411;28;20435;-72
2021/07/08 06:02:25;;;;;;;6.22;3.95;;;27.80;58.90;;;;;;5055152;28;20021;-73
2021/07/08 06:04:50;;;;;;;9.40;4.78;;;27.80;58.30;;;;;;5054671;28;20044;-73
2021/07/08 06:07:16;;;;;;;12.73;4.82;;;27.80;57.80;;;;;;5054310;28;20025;-74
2021/07/08 06:09:42;;;;;;;8.10;4.80;;;27.80;57.70;;;;;;5054224;28;20021;-74
2021/07/08 06:12:08;;;;;;;8.35;4.20;;;27.90;57.90;;;;;;5054097;28;20025;-74
2021/07/08 06:14:33;;;;;;;9.40;4.20;;;28.00;57.80;;;;;;5054368;28;20036;-74
2021/07/08 06:17:01;;;;;;;6.20;4.57;;;28.00;57.50;;;;;;5054321;28;20040;-74
2021/07/08 06:19:26;;;;;;;6.20;4.22;;;28.10;57.40;;;;;;5054125;28;20029;-74
2021/07/08 06:21:52;;;;;;;17.30;4.90;;;28.10;57.70;;;;;;5053921;28;20036;-74
2021/07/08 06:24:18;;;;;;;8.00;3.65;;;28.20;57.10;;;;;;5054078;28;20029;-74
2021/07/08 06:26:45;;;;;;;5.05;3.35;;;28.20;56.30;;;;;;5054126;28;20029;-74
2021/07/08 06:29:10;;;;;;;8.98;3.70;;;28.20;55.70;;;;;;5054098;28;20040;-75
2021/07/08 06:31:36;;;;;;;9.77;3.83;;;28.20;55.90;;;;;;5054189;28;20033;-74
2021/07/08 06:34:02;;;;;;;8.35;4.07;;;28.30;56.40;;;;;;5054243;28;20052;-73
2021/07/08 06:36:28;;;;;;;9.02;3.63;;;28.30;56.30;;;;;;5054298;28;20079;-73
2021/07/08 06:38:53;;;;;;;7.93;3.80;;;28.30;56.10;;;;;;5053778;28;20025;-74
2021/07/08 06:41:20;;;;;;;8.95;3.40;;;28.30;55.80;;;;;;5054185;28;20021;-77
2021/07/08 06:43:45;;;;;;;6.60;3.30;;;28.30;55.60;;;;;;5054286;28;20467;-76
2021/07/08 06:46:16;;;;;;;9.93;3.30;;;28.30;55.20;;;;;;5069396;28;20033;-82
2021/07/08 06:48:45;;;;;;;9.75;3.75;;;28.40;55.00;;;;;;5053753;28;20033;-77
2021/07/08 06:51:10;;;;;;;7.90;3.60;;;28.40;54.90;;;;;;5054077;28;20029;-73
2021/07/08 06:53:38;;;;;;;8.20;3.22;;;28.50;54.80;;;;;;5054226;28;20075;-77
2021/07/08 06:56:04;;;;;;;6.25;3.47;;;28.50;54.60;;;;;;5053513;28;20024;-77
2021/07/08 06:58:30;;;;;;;4.40;2.92;;;28.50;54.10;;;;;;5054202;28;20075;-77
2021/07/08 07:00:56;;;;;;;5.90;3.38;;;28.60;53.50;;;;;;5069262;28;20422;-77
2021/07/08 07:03:22;;;;;;;8.98;3.63;;;28.70;53.30;;;;;;5054269;28;20455;-76
2021/07/08 07:05:48;;;;;;;6.50;3.20;;;28.70;53.20;;;;;;5052528;28;20029;-73
2021/07/08 07:08:14;;;;;;;4.88;2.90;;;28.80;52.90;;;;;;5053828;28;20474;-73
2021/07/08 07:10:39;;;;;;;3.67;2.80;;;28.80;52.40;;;;;;5053315;28;20028;-74
2021/07/08 07:13:11;;;;;;;6.28;3.17;;;28.80;51.60;;;;;;5053684;28;20029;-75
2021/07/08 07:15:39;;;;;;;5.03;3.00;;;28.80;51.20;;;;;;5053554;28;20366;-73
2021/07/08 07:18:05;;;;;;;4.68;2.72;;;28.90;51.20;;;;;;5053307;28;20116;-74
2021/07/08 07:20:32;;;;;;;6.10;3.50;;;28.90;50.80;;;;;;5053067;28;20083;-74
2021/07/08 07:22:58;;;;;;;6.18;3.20;;;28.90;51.50;;;;;;5053360;28;20036;-73
2021/07/08 07:25:26;;;;;;;4.25;2.50;;;29.00;51.70;;;;;;5053332;28;20055;-73
2021/07/08 07:27:53;;;;;;;3.63;2.60;;;29.00;51.30;;;;;;5053774;28;20031;-75
2021/07/08 07:30:22;;;;;;;8.77;3.20;;;29.00;51.10;;;;;;5053292;28;20029;-73
2021/07/08 07:32:48;;;;;;;6.47;3.45;;;29.10;51.30;;;;;;5053468;28;20055;-73
2021/07/08 07:35:14;;;;;;;3.38;3.08;;;29.10;51.40;;;;;;5053270;28;20037;-74
2021/07/08 07:37:40;;;;;;;13.23;2.92;;;29.20;51.30;;;;;;5053424;28;20056;-73
2021/07/08 07:40:07;;;;;;;8.00;3.10;;;29.20;50.80;;;;;;5053739;28;20040;-74
2021/07/08 07:42:34;;;;;;;6.40;2.97;;;29.30;50.70;;;;;;5053075;28;20098;-75
2021/07/08 07:45:01;;;;;;;7.13;3.15;;;29.30;50.80;;;;;;5053175;28;20089;-73
2021/07/08 07:47:29;;;;;;;4.65;2.80;;;29.30;50.80;;;;;;5053062;28;20053;-74
2021/07/08 07:49:55;;;;;;;4.05;2.50;;;29.40;50.20;;;;;;5053221;28;20387;-74
2021/07/08 07:52:21;;;;;;;5.13;2.78;;;29.40;49.50;;;;;;5053519;28;20036;-74
2021/07/08 07:54:47;;;;;;;4.50;2.60;;;29.50;48.60;;;;;;5053598;28;20032;-76
2021/07/08 07:57:13;;;;;;;16.30;3.80;;;29.50;48.60;;;;;;5053150;28;20025;-78
2021/07/08 07:59:39;;;;;;;4.18;2.80;;;29.50;48.20;;;;;;5053173;28;20100;-73
2021/07/08 08:02:13;;;;;;;8.20;3.05;;;29.60;47.70;;;;;;5052760;28;20028;-73
2021/07/08 08:10:09;;;;;;;;;;;29.60;47.20;;;;;;5056966;28;20446;-74
2021/07/08 08:12:35;;;;;;;6.68;2.80;;;29.70;47.80;;;;;;5057017;28;19905;-75
2021/07/08 08:15:06;;;;;;;9.50;3.45;;;29.80;48.10;;;;;;5056794;28;20461;-74
2021/07/08 08:17:34;;;;;;;7.47;2.17;;;29.90;48.00;;;;;;5056823;28;20036;-75
2021/07/08 08:19:59;;;;;;;4.30;2.13;;;30.00;46.20;;;;;;5056749;28;20120;-78
2021/07/08 08:22:25;;;;;;;3.40;2.00;;;30.00;45.30;;;;;;5057100;28;20029;-76
2021/07/08 08:24:51;;;;;;;6.65;2.05;;;30.00;44.10;;;;;;5056769;28;20108;-76
2021/07/08 08:27:17;;;;;;;6.20;3.28;;;30.00;43.90;;;;;;5056578;28;20501;-77
2021/07/08 08:29:43;;;;;;;7.50;2.22;;;30.00;44.20;;;;;;5056433;28;20105;-77
2021/07/08 08:32:09;;;;;;;15.43;3.28;;;30.10;44.10;;;;;;5056561;28;20032;-77
2021/07/08 08:34:36;;;;;;;4.05;2.40;;;30.30;43.90;;;;;;5056309;28;20033;-76
2021/07/08 08:37:01;;;;;;;4.90;2.40;;;30.50;43.20;;;;;;5056607;28;20025;-77
2021/07/08 08:39:27;;;;;;;4.72;2.10;;;30.70;42.30;;;;;;5056130;28;20036;-76
2021/07/08 08:41:53;;;;;;;3.13;1.92;;;30.90;42.00;;;;;;5055839;28;20036;-78
2021/07/08 08:44:19;;;;;;;4.65;1.83;;;31.10;42.00;;;;;;5071225;28;20029;-78
2021/07/08 08:46:44;;;;;;;2.95;1.63;;;31.20;41.40;;;;;;5056052;28;20059;-77
2021/07/08 08:49:10;;;;;;;4.22;2.08;;;31.40;40.90;;;;;;5055961;28;20098;-78
2021/07/08 08:51:36;;;;;;;5.32;2.20;;;31.50;40.80;;;;;;5056579;28;20041;-77
2021/07/08 08:54:03;;;;;;;4.38;2.40;;;31.70;40.70;;;;;;5056268;28;20045;-77
2021/07/08 08:56:29;;;;;;;3.08;2.35;;;31.90;40.30;;;;;;5055535;28;20479;-77
2021/07/08 08:58:54;;;;;;;3.50;2.20;;;32.10;40.10;;;;;;5055820;28;20028;-77
2021/07/08 09:01:20;;;;;;;5.05;2.30;;;32.20;40.30;;;;;;5055616;28;20024;-80
2021/07/08 09:03:47;;;;;;;6.55;2.53;;;32.40;40.10;;;;;;5055492;28;20025;-77
2021/07/08 09:06:15;;;;;;;6.60;2.30;;;32.40;40.10;;;;;;5055580;28;20028;-77
2021/07/08 09:08:50;;;;;;;3.85;2.50;;;32.60;40.30;;;;;;5055683;28;20036;-78
2021/07/08 09:11:19;;;;;;;7.72;2.38;;;32.70;40.20;;;;;;5055662;28;20021;-78
2021/07/08 09:13:48;;;;;;;3.92;2.60;;;33.00;40.30;;;;;;5054051;28;20402;-78
2021/07/08 09:16:23;;;;;;;10.88;2.92;;;33.20;40.20;;;;;;5055065;28;20039;-86
2021/07/08 09:19:06;;;;;;;7.32;2.45;;;33.40;40.00;;;;;;5070961;28;20036;-77
2021/07/08 09:21:37;;;;;;;6.85;2.67;;;33.60;39.60;;;;;;5055079;28;20049;-76
2021/07/08 09:24:17;;;;;;;5.63;2.65;;;33.80;39.60;;;;;;5055853;28;20478;-76
2021/07/08 09:26:57;;;;;;;4.00;2.17;;;34.10;39.20;;;;;;5055700;28;20031;-76
2021/07/08 09:29:35;;;;;;;3.15;2.42;;;34.30;38.80;;;;;;5056641;28;20067;-77
2021/07/08 09:32:04;;;;;;;3.15;2.30;;;34.50;38.70;;;;;;5054203;28;20394;-77
2021/07/08 09:34:35;;;;;;;4.80;2.33;;;34.70;38.60;;;;;;5055616;28;20451;-77
2021/07/08 09:37:05;;;;;;;7.15;2.60;;;34.90;38.20;;;;;;5070267;28;20087;-79
2021/07/08 09:39:36;;;;;;;5.88;2.60;;;35.00;38.30;;;;;;5054835;28;20386;-77
2021/07/08 09:42:02;;;;;;;4.13;2.70;;;35.20;38.20;;;;;;5053835;28;20040;-76
2021/07/08 09:44:29;;;;;;;5.50;2.60;;;35.40;38.10;;;;;;5054696;28;20041;-77
2021/07/08 09:46:57;;;;;;;3.05;2.38;;;35.60;38.00;;;;;;5055460;28;20052;-77
2021/07/08 09:49:24;;;;;;;7.43;2.55;;;35.80;38.20;;;;;;5070724;28;20040;-77
2021/07/08 09:51:50;;;;;;;6.85;2.40;;;36.00;38.00;;;;;;5055219;28;20029;-78
2021/07/08 09:55:44;;;;;;;3.97;2.40;;;36.30;37.60;;;;;;5055224;28;20071;-78
2021/07/08 09:57:40;;;;;;;6.05;2.58;;;36.60;37.10;;;;;;5053939;28;20033;-76
2021/07/08 10:00:27;;;;;;;5.13;2.80;;;36.90;36.90;;;;;;5055291;28;20025;-76
2021/07/08 10:02:54;;;;;;;7.20;2.30;;;37.20;36.70;;;;;;5054767;28;20349;-77
2021/07/08 10:05:21;;;;;;;9.82;2.85;;;37.40;36.70;;;;;;5070061;28;20028;-79
2021/07/08 10:07:47;;;;;;;3.60;2.70;;;37.50;36.60;;;;;;5054447;28;20150;-77
2021/07/08 10:10:15;;;;;;;8.25;2.70;;;37.80;36.40;;;;;;5054599;28;20025;-77
2021/07/08 10:12:42;;;;;;;8.68;3.20;;;38.00;36.20;;;;;;5054829;28;20036;-78
2021/07/08 10:15:11;;;;;;;3.58;2.60;;;38.30;36.00;;;;;;5054370;28;20041;-74
2021/07/08 10:17:38;;;;;;;5.57;2.38;;;38.50;35.40;;;;;;5054683;28;20364;-73
2021/07/08 10:20:10;;;;;;;13.50;3.33;;;38.70;35.00;;;;;;5054260;28;20383;-74
2021/07/08 10:22:37;;;;;;;11.88;2.97;;;38.90;34.90;;;;;;5054147;28;20025;-73
2021/07/08 10:25:05;;;;;;;4.70;2.70;;;39.00;34.90;;;;;;5054242;28;20475;-73
2021/07/08 10:27:32;;;;;;;8.40;2.60;;;39.10;34.90;;;;;;5053125;28;20037;-72
2021/07/08 10:30:01;;;;;;;9.00;2.70;;;39.20;34.70;;;;;;5054028;28;20107;-72
2021/07/08 10:32:27;;;;;;;4.55;2.40;;;39.20;34.50;;;;;;5054607;28;20381;-73
2021/07/08 10:34:53;;;;;;;5.85;2.40;;;39.30;34.40;;;;;;5054234;28;20094;-73
2021/07/08 10:37:26;;;;;;;3.92;2.03;;;39.50;33.90;;;;;;5054125;28;20029;-74
2021/07/08 10:39:52;;;;;;;3.93;2.57;;;39.70;33.70;;;;;;5054549;28;20032;-72
2021/07/08 10:42:49;;;;;;;5.72;2.55;;;39.80;33.90;;;;;;5053919;28;20021;-73
2021/07/08 10:45:36;;;;;;;4.47;2.20;;;39.90;34.10;;;;;;5053989;28;20036;-72
2021/07/08 10:48:14;;;;;;;10.32;2.63;;;40.00;34.10;;;;;;5054168;28;20087;-74
2021/07/08 10:50:41;;;;;;;15.90;2.63;;;40.10;34.20;;;;;;5069725;28;20158;-72
2021/07/08 10:53:16;;;;;;;17.02;2.83;;;40.30;34.20;;;;;;5054172;28;20057;-74
2021/07/08 10:55:44;;;;;;;8.27;2.38;;;40.50;33.90;;;;;;5053849;28;20037;-77
2021/07/08 10:58:44;;;;;;;8.10;2.65;;;40.80;33.70;;;;;;5054104;28;20112;-72
2021/07/08 11:01:22;;;;;;;18.98;3.13;;;40.90;33.70;;;;;;5053661;28;20029;-73
2021/07/08 11:03:58;;;;;;;6.22;2.58;;;41.10;34.00;;;;;;5053658;28;20021;-73
2021/07/08 11:07:10;;;;;;;8.32;2.22;;;41.30;34.10;;;;;;5053530;28;20045;-73
2021/07/08 11:09:58;;;;;;;5.75;2.60;;;41.50;34.20;;;;;;5053369;28;20025;-74
2021/07/08 11:12:34;;;;;;;12.00;2.95;;;41.80;33.90;;;;;;5053988;28;20033;-73
2021/07/08 11:15:01;;;;;;;8.18;2.67;;;42.10;33.30;;;;;;5052844;28;20029;-74
2021/07/08 11:17:38;;;;;;;10.27;2.40;;;42.30;32.80;;;;;;5053245;28;20091;-73
2021/07/08 11:20:31;;;;;;;4.13;1.90;;;42.50;32.70;;;;;;5052780;28;20025;-75
2021/07/08 11:23:16;;;;;;;4.03;2.20;;;42.70;32.60;;;;;;5053624;28;20029;-74
2021/07/08 11:25:42;;;;;;;4.88;2.60;;;42.90;32.60;;;;;;5053868;28;20021;-73
2021/07/08 11:28:28;;;;;;;5.32;2.30;;;43.20;32.70;;;;;;5053972;28;20122;-74
2021/07/08 11:31:11;;;;;;;3.55;2.10;;;43.40;32.50;;;;;;5053190;28;20107;-73
2021/07/08 11:33:39;;;;;;;4.13;2.13;;;43.70;32.50;;;;;;5052143;28;20423;-73
2021/07/08 11:36:12;;;;;;;12.02;2.60;;;43.90;32.60;;;;;;5053225;28;20036;-74
2021/07/08 11:38:41;;;;;;;;;;;44.00;32.40;;;;;;5053975;28;20025;-73
2021/07/08 11:41:09;;;;;;;4.22;2.15;;;44.10;32.70;;;;;;5051945;28;20339;-74
2021/07/08 11:43:37;;;;;;;7.95;2.50;;;44.20;32.40;;;;;;5054857;28;20040;-75
2021/07/08 11:46:17;;;;;;;5.28;2.15;;;44.30;32.40;;;;;;5057161;28;20190;-73
2021/07/08 11:48:44;;;;;;;3.80;1.92;;;44.40;32.20;;;;;;5057294;28;20025;-73
2021/07/08 11:51:22;;;;;;;5.47;2.45;;;44.50;32.10;;;;;;5057298;28;20035;-73
2021/07/08 11:53:49;;;;;;;6.78;2.78;;;44.60;32.00;;;;;;5056692;28;20568;-73
2021/07/08 11:56:19;;;;;;;6.75;3.47;;;44.70;32.00;;;;;;5057306;28;20370;-73
2021/07/08 11:58:45;;;;;;;5.72;2.28;;;44.90;32.00;;;;;;5057449;28;20053;-72
2021/07/08 12:01:13;;;;;;;3.53;2.45;;;44.90;31.80;;;;;;5056988;28;20033;-73
2021/07/08 12:03:41;;;;;;;18.75;2.70;;;45.10;31.90;;;;;;5056952;28;20032;-72
2021/07/08 12:06:09;;;;;;;7.30;2.40;;;45.20;31.40;;;;;;5056953;28;20052;-73
2021/07/08 12:08:57;;;;;;;5.68;2.25;;;45.30;31.40;;;;;;5056510;28;20055;-71
2021/07/08 12:11:36;;;;;;;4.53;2.00;;;45.40;31.30;;;;;;5057452;28;20079;-79
2021/07/08 12:14:07;;;;;;;11.13;2.83;;;45.60;31.30;;;;;;5057024;28;20037;-74
2021/07/08 12:16:38;;;;;;;7.90;2.45;;;45.80;30.80;;;;;;5056972;28;20049;-74
2021/07/08 12:19:04;;;;;;;3.50;2.17;;;45.90;30.80;;;;;;5056606;28;20031;-74
2021/07/08 12:21:38;;;;;;;4.68;2.85;;;46.00;30.70;;;;;;5071872;28;20120;-73
2021/07/08 12:24:21;;;;;;;3.60;2.20;;;46.10;30.60;;;;;;5056265;28;20028;-73
2021/07/08 12:26:47;;;;;;;2.92;2.35;;;46.30;30.20;;;;;;5057080;28;20037;-73
2021/07/08 12:29:13;;;;;;;5.47;2.00;;;46.40;30.10;;;;;;5056589;28;20444;-73
2021/07/08 12:31:44;;;;;;;3.53;2.00;;;46.60;30.20;;;;;;5056287;28;20029;-73
2021/07/08 12:34:10;;;;;;;5.30;2.10;;;46.70;30.20;;;;;;5056691;28;20025;-74
2021/07/08 12:36:36;;;;;;;3.22;2.13;;;46.70;30.20;;;;;;5056381;28;20037;-74
2021/07/08 12:39:04;;;;;;;5.57;1.90;;;46.80;30.10;;;;;;5056527;28;20021;-74
2021/07/08 12:41:29;;;;;;;2.70;1.92;;;46.90;30.00;;;;;;5055831;28;20029;-74
2021/07/08 12:43:55;;;;;;;3.67;1.90;;;47.00;29.80;;;;;;5056046;28;20032;-74
2021/07/08 12:46:30;;;;;;;12.43;2.72;;;47.20;29.80;;;;;;5055751;28;20518;-73
2021/07/08 12:48:56;;;;;;;12.50;2.67;;;47.30;29.70;;;;;;5055927;28;20040;-73
2021/07/08 12:51:23;;;;;;;2.25;1.90;;;47.30;29.80;;;;;;5055992;28;20378;-72
2021/07/08 12:53:49;;;;;;;6.35;2.13;;;47.30;29.90;;;;;;5055977;28;20124;-73
2021/07/08 12:56:15;;;;;;;4.72;2.47;;;47.30;29.90;;;;;;5055654;28;20453;-72